sensor_id;sensor_type;location;lat;lon;timestamp;P1;durP1;ratioP1;P2;durP2;ratioP2
51907;SDS011;39320;53.214;6.556;2023-03-01T00:02:02;8.63;;;7.85;;
51907;SDS011;39320;53.214;6.556;2023-03-01T00:04:29;7.70;;;7.00;;
51907;SDS011;39320;53.214;6.556;2023-03-01T00:06:55;8.30;;;7.45;;
51907;SDS011;39320;53.214;6.556;2023-03-01T00:09:21;7.90;;;7.20;;
51907;SDS011;39320;53.214;6.556;2023-03-01T00:11:47;7.65;;;7.00;;
51907;SDS011;39320;53.214;6.556;2023-03-01T00:14:13;7.43;;;6.68;;
51907;SDS011;39320;53.214;6.556;2023-03-01T00:16:41;8.65;;;7.85;;
51907;SDS011;39320;53.214;6.556;2023-03-01T00:19:12;8.55;;;7.60;;
51907;SDS011;39320;53.214;6.556;2023-03-01T00:21:40;8.88;;;8.07;;
51907;SDS011;39320;53.214;6.556;2023-03-01T00:24:06;8.25;;;7.45;;
51907;SDS011;39320;53.214;6.556;2023-03-01T00:26:32;9.05;;;8.25;;
51907;SDS011;39320;53.214;6.556;2023-03-01T00:28:58;8.95;;;8.25;;
51907;SDS011;39320;53.214;6.556;2023-03-01T00:31:28;7.78;;;7.15;;
51907;SDS011;39320;53.214;6.556;2023-03-01T00:33:57;9.05;;;8.30;;
51907;SDS011;39320;53.214;6.556;2023-03-01T00:36:28;9.55;;;8.55;;
51907;SDS011;39320;53.214;6.556;2023-03-01T00:38:56;8.48;;;7.78;;
51907;SDS011;39320;53.214;6.556;2023-03-01T00:41:22;8.93;;;8.10;;
51907;SDS011;39320;53.214;6.556;2023-03-01T00:43:49;9.45;;;8.57;;
51907;SDS011;39320;53.214;6.556;2023-03-01T00:46:16;9.02;;;8.20;;
51907;SDS011;39320;53.214;6.556;2023-03-01T00:49:08;9.60;;;8.73;;
51907;SDS011;39320;53.214;6.556;2023-03-01T00:51:40;10.63;;;9.73;;
51907;SDS011;39320;53.214;6.556;2023-03-01T00:54:09;9.32;;;8.52;;
51907;SDS011;39320;53.214;6.556;2023-03-01T00:56:35;9.73;;;8.93;;
51907;SDS011;39320;53.214;6.556;2023-03-01T00:59:01;9.38;;;8.52;;
51907;SDS011;39320;53.214;6.556;2023-03-01T01:01:28;10.25;;;9.25;;
51907;SDS011;39320;53.214;6.556;2023-03-01T01:03:57;10.02;;;9.23;;
51907;SDS011;39320;53.214;6.556;2023-03-01T01:06:34;9.82;;;8.93;;
51907;SDS011;39320;53.214;6.556;2023-03-01T01:09:07;10.05;;;9.10;;
51907;SDS011;39320;53.214;6.556;2023-03-01T01:11:34;10.77;;;9.70;;
51907;SDS011;39320;53.214;6.556;2023-03-01T01:14:01;10.43;;;9.52;;
51907;SDS011;39320;53.214;6.556;2023-03-01T01:16:28;9.90;;;9.10;;
51907;SDS011;39320;53.214;6.556;2023-03-01T01:18:54;9.93;;;9.13;;
51907;SDS011;39320;53.214;6.556;2023-03-01T01:21:21;9.95;;;9.05;;
51907;SDS011;39320;53.214;6.556;2023-03-01T01:23:49;9.93;;;9.13;;
51907;SDS011;39320;53.214;6.556;2023-03-01T01:26:16;9.15;;;8.25;;
51907;SDS011;39320;53.214;6.556;2023-03-01T01:28:49;9.05;;;8.25;;
51907;SDS011;39320;53.214;6.556;2023-03-01T01:31:27;8.90;;;8.20;;
51907;SDS011;39320;53.214;6.556;2023-03-01T01:33:56;8.45;;;7.75;;
51907;SDS011;39320;53.214;6.556;2023-03-01T01:36:23;9.75;;;8.85;;
51907;SDS011;39320;53.214;6.556;2023-03-01T01:38:49;8.73;;;8.00;;
51907;SDS011;39320;53.214;6.556;2023-03-01T01:41:15;8.80;;;8.00;;
51907;SDS011;39320;53.214;6.556;2023-03-01T01:43:43;9.63;;;8.82;;
51907;SDS011;39320;53.214;6.556;2023-03-01T01:48:46;8.10;;;7.45;;
51907;SDS011;39320;53.214;6.556;2023-03-01T01:51:17;8.20;;;7.40;;
51907;SDS011;39320;53.214;6.556;2023-03-01T01:53:49;8.57;;;7.82;;
51907;SDS011;39320;53.214;6.556;2023-03-01T01:56:19;9.05;;;8.25;;
51907;SDS011;39320;53.214;6.556;2023-03-01T01:58:46;7.70;;;6.95;;
51907;SDS011;39320;53.214;6.556;2023-03-01T02:01:13;8.95;;;8.25;;
51907;SDS011;39320;53.214;6.556;2023-03-01T02:03:39;7.75;;;7.05;;
51907;SDS011;39320;53.214;6.556;2023-03-01T02:08:47;8.10;;;7.40;;
51907;SDS011;39320;53.214;6.556;2023-03-01T02:11:14;7.85;;;7.15;;
51907;SDS011;39320;53.214;6.556;2023-03-01T02:13:41;6.80;;;6.22;;
51907;SDS011;39320;53.214;6.556;2023-03-01T02:16:08;7.63;;;7.03;;
51907;SDS011;39320;53.214;6.556;2023-03-01T02:18:35;7.80;;;7.20;;
51907;SDS011;39320;53.214;6.556;2023-03-01T02:24:10;7.70;;;7.10;;
51907;SDS011;39320;53.214;6.556;2023-03-01T02:26:46;6.65;;;6.05;;
51907;SDS011;39320;53.214;6.556;2023-03-01T02:29:17;7.45;;;6.85;;
51907;SDS011;39320;53.214;6.556;2023-03-01T02:31:43;7.32;;;6.63;;
51907;SDS011;39320;53.214;6.556;2023-03-01T02:34:14;5.63;;;5.22;;
51907;SDS011;39320;53.214;6.556;2023-03-01T02:36:46;7.10;;;6.50;;
51907;SDS011;39320;53.214;6.556;2023-03-01T02:39:37;6.55;;;6.05;;
51907;SDS011;39320;53.214;6.556;2023-03-01T02:42:16;6.63;;;6.13;;
51907;SDS011;39320;53.214;6.556;2023-03-01T02:44:51;7.35;;;6.63;;
51907;SDS011;39320;53.214;6.556;2023-03-01T02:47:17;6.93;;;6.30;;
51907;SDS011;39320;53.214;6.556;2023-03-01T02:49:43;6.82;;;6.32;;
51907;SDS011;39320;53.214;6.556;2023-03-01T02:54:58;6.25;;;5.65;;
51907;SDS011;39320;53.214;6.556;2023-03-01T02:57:28;6.85;;;6.35;;
51907;SDS011;39320;53.214;6.556;2023-03-01T02:59:57;6.15;;;5.65;;
51907;SDS011;39320;53.214;6.556;2023-03-01T03:05:08;5.47;;;5.07;;
51907;SDS011;39320;53.214;6.556;2023-03-01T03:07:37;5.45;;;5.05;;
51907;SDS011;39320;53.214;6.556;2023-03-01T03:10:05;5.90;;;5.40;;
51907;SDS011;39320;53.214;6.556;2023-03-01T03:12:33;6.03;;;5.50;;
51907;SDS011;39320;53.214;6.556;2023-03-01T03:14:59;5.50;;;5.05;;
51907;SDS011;39320;53.214;6.556;2023-03-01T03:17:25;5.07;;;4.68;;
51907;SDS011;39320;53.214;6.556;2023-03-01T03:19:51;5.95;;;5.45;;
51907;SDS011;39320;53.214;6.556;2023-03-01T03:22:16;5.22;;;4.82;;
51907;SDS011;39320;53.214;6.556;2023-03-01T03:24:42;5.63;;;5.10;;
51907;SDS011;39320;53.214;6.556;2023-03-01T03:27:08;4.97;;;4.57;;
51907;SDS011;39320;53.214;6.556;2023-03-01T03:29:34;5.72;;;5.25;;
51907;SDS011;39320;53.214;6.556;2023-03-01T03:31:59;4.90;;;4.60;;
51907;SDS011;39320;53.214;6.556;2023-03-01T03:34:25;5.70;;;5.25;;
51907;SDS011;39320;53.214;6.556;2023-03-01T03:36:54;5.22;;;4.82;;
51907;SDS011;39320;53.214;6.556;2023-03-01T03:44:19;5.35;;;4.95;;
51907;SDS011;39320;53.214;6.556;2023-03-01T03:46:46;5.88;;;5.28;;
51907;SDS011;39320;53.214;6.556;2023-03-01T03:49:12;5.38;;;4.97;;
51907;SDS011;39320;53.214;6.556;2023-03-01T03:51:38;5.88;;;5.40;;
51907;SDS011;39320;53.214;6.556;2023-03-01T03:54:04;5.80;;;5.30;;
51907;SDS011;39320;53.214;6.556;2023-03-01T03:56:30;5.93;;;5.43;;
51907;SDS011;39320;53.214;6.556;2023-03-01T03:58:55;7.32;;;6.78;;
51907;SDS011;39320;53.214;6.556;2023-03-01T04:01:21;5.70;;;5.30;;
51907;SDS011;39320;53.214;6.556;2023-03-01T04:03:47;6.18;;;5.68;;
51907;SDS011;39320;53.214;6.556;2023-03-01T04:06:13;5.70;;;5.25;;
51907;SDS011;39320;53.214;6.556;2023-03-01T04:08:39;5.65;;;5.15;;
51907;SDS011;39320;53.214;6.556;2023-03-01T04:11:06;5.47;;;5.00;;
51907;SDS011;39320;53.214;6.556;2023-03-01T04:13:51;6.20;;;5.70;;
51907;SDS011;39320;53.214;6.556;2023-03-01T04:16:18;5.95;;;5.40;;
51907;SDS011;39320;53.214;6.556;2023-03-01T04:18:44;5.88;;;5.30;;
51907;SDS011;39320;53.214;6.556;2023-03-01T04:21:10;5.35;;;4.95;;
51907;SDS011;39320;53.214;6.556;2023-03-01T04:23:37;4.68;;;4.28;;
51907;SDS011;39320;53.214;6.556;2023-03-01T04:26:03;4.32;;;4.03;;
51907;SDS011;39320;53.214;6.556;2023-03-01T04:28:37;4.22;;;3.83;;
51907;SDS011;39320;53.214;6.556;2023-03-01T04:31:09;5.10;;;4.53;;
51907;SDS011;39320;53.214;6.556;2023-03-01T04:33:46;4.55;;;4.25;;
51907;SDS011;39320;53.214;6.556;2023-03-01T04:36:24;4.80;;;4.40;;
51907;SDS011;39320;53.214;6.556;2023-03-01T04:38:51;4.88;;;4.30;;
51907;SDS011;39320;53.214;6.556;2023-03-01T04:41:19;4.88;;;4.47;;
51907;SDS011;39320;53.214;6.556;2023-03-01T04:43:46;4.90;;;4.38;;
51907;SDS011;39320;53.214;6.556;2023-03-01T04:46:13;4.47;;;4.13;;
51907;SDS011;39320;53.214;6.556;2023-03-01T04:48:41;4.75;;;4.35;;
51907;SDS011;39320;53.214;6.556;2023-03-01T04:51:08;4.70;;;4.30;;
51907;SDS011;39320;53.214;6.556;2023-03-01T04:53:34;4.60;;;4.18;;
51907;SDS011;39320;53.214;6.556;2023-03-01T04:56:03;4.55;;;4.15;;
51907;SDS011;39320;53.214;6.556;2023-03-01T04:58:29;4.30;;;4.00;;
51907;SDS011;39320;53.214;6.556;2023-03-01T05:00:55;4.85;;;4.45;;
51907;SDS011;39320;53.214;6.556;2023-03-01T05:03:21;4.40;;;4.00;;
51907;SDS011;39320;53.214;6.556;2023-03-01T05:05:48;3.95;;;3.65;;
51907;SDS011;39320;53.214;6.556;2023-03-01T05:08:15;4.70;;;4.40;;
51907;SDS011;39320;53.214;6.556;2023-03-01T05:10:47;3.92;;;3.63;;
51907;SDS011;39320;53.214;6.556;2023-03-01T05:13:15;4.25;;;3.88;;
51907;SDS011;39320;53.214;6.556;2023-03-01T05:15:49;3.78;;;3.47;;
51907;SDS011;39320;53.214;6.556;2023-03-01T05:18:20;3.63;;;3.33;;
51907;SDS011;39320;53.214;6.556;2023-03-01T05:20:46;4.40;;;4.07;;
51907;SDS011;39320;53.214;6.556;2023-03-01T05:23:12;3.80;;;3.50;;
51907;SDS011;39320;53.214;6.556;2023-03-01T05:25:38;3.97;;;3.67;;
51907;SDS011;39320;53.214;6.556;2023-03-01T05:28:06;4.25;;;3.90;;
51907;SDS011;39320;53.214;6.556;2023-03-01T05:30:38;4.25;;;3.88;;
51907;SDS011;39320;53.214;6.556;2023-03-01T05:33:07;4.00;;;3.75;;
51907;SDS011;39320;53.214;6.556;2023-03-01T05:35:41;4.03;;;3.72;;
51907;SDS011;39320;53.214;6.556;2023-03-01T05:38:08;4.15;;;3.75;;
51907;SDS011;39320;53.214;6.556;2023-03-01T05:40:38;4.20;;;3.90;;
51907;SDS011;39320;53.214;6.556;2023-03-01T05:43:05;3.80;;;3.50;;
51907;SDS011;39320;53.214;6.556;2023-03-01T05:45:31;4.05;;;3.75;;
51907;SDS011;39320;53.214;6.556;2023-03-01T05:47:58;4.18;;;3.88;;
51907;SDS011;39320;53.214;6.556;2023-03-01T05:50:28;3.80;;;3.50;;
51907;SDS011;39320;53.214;6.556;2023-03-01T05:52:59;4.40;;;4.00;;
51907;SDS011;39320;53.214;6.556;2023-03-01T05:55:27;4.10;;;3.80;;
51907;SDS011;39320;53.214;6.556;2023-03-01T05:57:54;4.15;;;3.80;;
51907;SDS011;39320;53.214;6.556;2023-03-01T06:00:23;4.80;;;4.40;;
51907;SDS011;39320;53.214;6.556;2023-03-01T06:02:49;4.32;;;3.95;;
51907;SDS011;39320;53.214;6.556;2023-03-01T06:05:17;4.32;;;4.03;;
51907;SDS011;39320;53.214;6.556;2023-03-01T06:07:43;4.15;;;3.85;;
51907;SDS011;39320;53.214;6.556;2023-03-01T06:10:10;4.72;;;4.32;;
51907;SDS011;39320;53.214;6.556;2023-03-01T06:12:37;4.00;;;3.70;;
51907;SDS011;39320;53.214;6.556;2023-03-01T06:15:05;4.43;;;4.13;;
51907;SDS011;39320;53.214;6.556;2023-03-01T06:17:32;4.95;;;4.35;;
51907;SDS011;39320;53.214;6.556;2023-03-01T06:20:09;4.82;;;4.43;;
51907;SDS011;39320;53.214;6.556;2023-03-01T06:22:38;4.63;;;4.25;;
51907;SDS011;39320;53.214;6.556;2023-03-01T06:25:04;4.63;;;4.32;;
51907;SDS011;39320;53.214;6.556;2023-03-01T06:27:31;4.55;;;4.15;;
51907;SDS011;39320;53.214;6.556;2023-03-01T06:29:56;4.60;;;4.20;;
51907;SDS011;39320;53.214;6.556;2023-03-01T06:32:22;4.43;;;4.10;;
51907;SDS011;39320;53.214;6.556;2023-03-01T06:34:49;4.30;;;3.92;;
51907;SDS011;39320;53.214;6.556;2023-03-01T06:37:15;4.60;;;4.20;;
51907;SDS011;39320;53.214;6.556;2023-03-01T06:39:41;4.35;;;3.95;;
51907;SDS011;39320;53.214;6.556;2023-03-01T06:42:07;4.47;;;4.18;;
51907;SDS011;39320;53.214;6.556;2023-03-01T06:44:35;5.03;;;4.68;;
51907;SDS011;39320;53.214;6.556;2023-03-01T06:47:01;5.15;;;4.68;;
51907;SDS011;39320;53.214;6.556;2023-03-01T06:49:32;4.85;;;4.45;;
51907;SDS011;39320;53.214;6.556;2023-03-01T06:51:58;4.38;;;4.07;;
51907;SDS011;39320;53.214;6.556;2023-03-01T06:54:28;5.55;;;5.15;;
51907;SDS011;39320;53.214;6.556;2023-03-01T06:56:53;5.05;;;4.57;;
51907;SDS011;39320;53.214;6.556;2023-03-01T06:59:19;5.00;;;4.50;;
51907;SDS011;39320;53.214;6.556;2023-03-01T07:01:46;9.25;;;5.90;;
51907;SDS011;39320;53.214;6.556;2023-03-01T07:04:12;6.00;;;5.50;;
51907;SDS011;39320;53.214;6.556;2023-03-01T07:06:38;6.65;;;6.03;;
51907;SDS011;39320;53.214;6.556;2023-03-01T07:09:04;5.82;;;5.32;;
51907;SDS011;39320;53.214;6.556;2023-03-01T07:11:30;5.78;;;5.32;;
51907;SDS011;39320;53.214;6.556;2023-03-01T07:13:59;7.03;;;6.40;;
51907;SDS011;39320;53.214;6.556;2023-03-01T07:16:25;7.68;;;7.00;;
51907;SDS011;39320;53.214;6.556;2023-03-01T07:18:54;7.22;;;6.63;;
51907;SDS011;39320;53.214;6.556;2023-03-01T07:21:19;7.72;;;7.03;;
51907;SDS011;39320;53.214;6.556;2023-03-01T07:23:47;8.02;;;7.32;;
51907;SDS011;39320;53.214;6.556;2023-03-01T07:26:14;8.27;;;7.57;;
51907;SDS011;39320;53.214;6.556;2023-03-01T07:28:39;6.63;;;6.03;;
51907;SDS011;39320;53.214;6.556;2023-03-01T07:31:08;6.63;;;6.13;;
51907;SDS011;39320;53.214;6.556;2023-03-01T07:33:34;6.18;;;5.78;;
51907;SDS011;39320;53.214;6.556;2023-03-01T07:36:03;5.65;;;5.15;;
51907;SDS011;39320;53.214;6.556;2023-03-01T07:38:29;7.18;;;6.57;;
51907;SDS011;39320;53.214;6.556;2023-03-01T07:40:59;7.30;;;6.68;;
51907;SDS011;39320;53.214;6.556;2023-03-01T07:43:26;6.50;;;5.95;;
51907;SDS011;39320;53.214;6.556;2023-03-01T07:45:53;7.22;;;6.45;;
51907;SDS011;39320;53.214;6.556;2023-03-01T07:48:19;7.25;;;6.70;;
51907;SDS011;39320;53.214;6.556;2023-03-01T07:50:44;7.68;;;6.88;;
51907;SDS011;39320;53.214;6.556;2023-03-01T07:53:10;7.63;;;7.03;;
51907;SDS011;39320;53.214;6.556;2023-03-01T07:55:36;7.93;;;7.13;;
51907;SDS011;39320;53.214;6.556;2023-03-01T07:58:02;9.73;;;8.82;;
51907;SDS011;39320;53.214;6.556;2023-03-01T08:00:28;9.90;;;9.13;;
51907;SDS011;39320;53.214;6.556;2023-03-01T08:02:54;10.80;;;9.88;;
51907;SDS011;39320;53.214;6.556;2023-03-01T08:05:23;10.25;;;9.25;;
51907;SDS011;39320;53.214;6.556;2023-03-01T08:07:49;10.55;;;9.65;;
51907;SDS011;39320;53.214;6.556;2023-03-01T08:10:14;10.27;;;9.27;;
51907;SDS011;39320;53.214;6.556;2023-03-01T08:12:42;9.48;;;8.57;;
51907;SDS011;39320;53.214;6.556;2023-03-01T08:15:09;10.82;;;9.82;;
51907;SDS011;39320;53.214;6.556;2023-03-01T08:17:35;11.55;;;10.55;;
51907;SDS011;39320;53.214;6.556;2023-03-01T08:20:01;14.63;;;13.27;;
51907;SDS011;39320;53.214;6.556;2023-03-01T08:22:30;16.00;;;14.50;;
51907;SDS011;39320;53.214;6.556;2023-03-01T08:24:56;15.20;;;13.80;;
51907;SDS011;39320;53.214;6.556;2023-03-01T08:27:22;13.85;;;12.68;;
51907;SDS011;39320;53.214;6.556;2023-03-01T08:29:51;14.18;;;12.88;;
51907;SDS011;39320;53.214;6.556;2023-03-01T08:32:16;14.02;;;12.73;;
51907;SDS011;39320;53.214;6.556;2023-03-01T08:34:42;13.82;;;12.60;;
51907;SDS011;39320;53.214;6.556;2023-03-01T08:37:14;14.70;;;13.20;;
51907;SDS011;39320;53.214;6.556;2023-03-01T08:39:40;14.57;;;13.27;;
51907;SDS011;39320;53.214;6.556;2023-03-01T08:42:06;13.18;;;12.02;;
51907;SDS011;39320;53.214;6.556;2023-03-01T08:44:32;13.30;;;12.05;;
51907;SDS011;39320;53.214;6.556;2023-03-01T08:46:58;13.95;;;12.75;;
51907;SDS011;39320;53.214;6.556;2023-03-01T08:49:25;13.02;;;11.93;;
51907;SDS011;39320;53.214;6.556;2023-03-01T08:51:51;16.27;;;12.82;;
51907;SDS011;39320;53.214;6.556;2023-03-01T08:54:19;12.40;;;11.20;;
51907;SDS011;39320;53.214;6.556;2023-03-01T08:56:46;13.05;;;11.85;;
51907;SDS011;39320;53.214;6.556;2023-03-01T08:59:15;12.90;;;11.80;;
51907;SDS011;39320;53.214;6.556;2023-03-01T09:01:42;12.88;;;11.70;;
51907;SDS011;39320;53.214;6.556;2023-03-01T09:04:09;13.48;;;12.18;;
51907;SDS011;39320;53.214;6.556;2023-03-01T09:06:38;12.27;;;11.18;;
51907;SDS011;39320;53.214;6.556;2023-03-01T09:09:07;12.90;;;11.73;;
51907;SDS011;39320;53.214;6.556;2023-03-01T09:11:40;12.48;;;11.38;;
51907;SDS011;39320;53.214;6.556;2023-03-01T09:14:05;12.90;;;11.75;;
51907;SDS011;39320;53.214;6.556;2023-03-01T09:16:32;12.27;;;11.18;;
51907;SDS011;39320;53.214;6.556;2023-03-01T09:19:01;13.05;;;11.75;;
51907;SDS011;39320;53.214;6.556;2023-03-01T09:21:28;14.02;;;11.40;;
51907;SDS011;39320;53.214;6.556;2023-03-01T09:23:55;12.38;;;10.82;;
51907;SDS011;39320;53.214;6.556;2023-03-01T09:26:27;10.68;;;9.75;;
51907;SDS011;39320;53.214;6.556;2023-03-01T09:28:54;11.70;;;10.73;;
51907;SDS011;39320;53.214;6.556;2023-03-01T09:31:24;11.00;;;10.07;;
51907;SDS011;39320;53.214;6.556;2023-03-01T09:33:51;11.52;;;10.43;;
51907;SDS011;39320;53.214;6.556;2023-03-01T09:36:19;12.15;;;10.68;;
51907;SDS011;39320;53.214;6.556;2023-03-01T09:38:47;11.52;;;10.45;;
51907;SDS011;39320;53.214;6.556;2023-03-01T09:41:26;11.30;;;10.20;;
51907;SDS011;39320;53.214;6.556;2023-03-01T09:43:55;11.40;;;10.35;;
51907;SDS011;39320;53.214;6.556;2023-03-01T09:46:28;10.52;;;9.52;;
51907;SDS011;39320;53.214;6.556;2023-03-01T09:49:02;10.43;;;9.52;;
51907;SDS011;39320;53.214;6.556;2023-03-01T09:51:35;10.20;;;9.30;;
51907;SDS011;39320;53.214;6.556;2023-03-01T09:54:02;10.07;;;9.18;;
51907;SDS011;39320;53.214;6.556;2023-03-01T09:56:30;9.90;;;9.10;;
51907;SDS011;39320;53.214;6.556;2023-03-01T10:01:59;8.80;;;8.00;;
51907;SDS011;39320;53.214;6.556;2023-03-01T10:04:46;8.55;;;7.85;;
51907;SDS011;39320;53.214;6.556;2023-03-01T10:07:32;7.78;;;7.18;;
51907;SDS011;39320;53.214;6.556;2023-03-01T10:10:04;9.27;;;8.48;;
51907;SDS011;39320;53.214;6.556;2023-03-01T10:12:37;8.18;;;7.38;;
51907;SDS011;39320;53.214;6.556;2023-03-01T10:15:07;8.00;;;7.30;;
51907;SDS011;39320;53.214;6.556;2023-03-01T10:17:46;8.57;;;7.88;;
51907;SDS011;39320;53.214;6.556;2023-03-01T10:23:07;8.82;;;8.13;;
51907;SDS011;39320;53.214;6.556;2023-03-01T10:30:43;9.40;;;8.60;;
51907;SDS011;39320;53.214;6.556;2023-03-01T10:35:48;9.68;;;8.88;;
51907;SDS011;39320;53.214;6.556;2023-03-01T10:38:15;9.40;;;8.60;;
51907;SDS011;39320;53.214;6.556;2023-03-01T10:40:53;10.05;;;9.02;;
51907;SDS011;39320;53.214;6.556;2023-03-01T10:43:24;8.80;;;8.02;;
51907;SDS011;39320;53.214;6.556;2023-03-01T10:45:54;9.43;;;8.52;;
51907;SDS011;39320;53.214;6.556;2023-03-01T10:48:24;8.75;;;8.05;;
51907;SDS011;39320;53.214;6.556;2023-03-01T10:53:34;9.82;;;8.93;;
51907;SDS011;39320;53.214;6.556;2023-03-01T10:58:40;9.48;;;8.32;;
51907;SDS011;39320;53.214;6.556;2023-03-01T11:01:26;8.35;;;7.75;;
51907;SDS011;39320;53.214;6.556;2023-03-01T11:06:32;8.50;;;7.80;;
51907;SDS011;39320;53.214;6.556;2023-03-01T11:09:13;8.85;;;8.05;;
51907;SDS011;39320;53.214;6.556;2023-03-01T11:11:51;9.13;;;8.40;;
51907;SDS011;39320;53.214;6.556;2023-03-01T11:14:20;9.05;;;8.23;;
51907;SDS011;39320;53.214;6.556;2023-03-01T11:16:48;9.13;;;8.32;;
51907;SDS011;39320;53.214;6.556;2023-03-01T11:19:43;10.30;;;9.40;;
51907;SDS011;39320;53.214;6.556;2023-03-01T11:22:50;9.27;;;8.50;;
51907;SDS011;39320;53.214;6.556;2023-03-01T11:25:27;6.97;;;6.47;;
51907;SDS011;39320;53.214;6.556;2023-03-01T11:28:04;8.82;;;8.13;;
51907;SDS011;39320;53.214;6.556;2023-03-01T11:30:36;8.27;;;7.57;;
51907;SDS011;39320;53.214;6.556;2023-03-01T11:38:40;7.22;;;6.53;;
51907;SDS011;39320;53.214;6.556;2023-03-01T11:41:08;6.50;;;5.90;;
51907;SDS011;39320;53.214;6.556;2023-03-01T11:54:50;7.00;;;6.40;;
51907;SDS011;39320;53.214;6.556;2023-03-01T12:08:33;6.40;;;5.80;;
51907;SDS011;39320;53.214;6.556;2023-03-01T12:19:17;6.47;;;5.88;;
51907;SDS011;39320;53.214;6.556;2023-03-01T12:38:19;7.18;;;6.47;;
51907;SDS011;39320;53.214;6.556;2023-03-01T12:44:00;7.88;;;7.18;;
51907;SDS011;39320;53.214;6.556;2023-03-01T12:47:00;7.82;;;7.25;;
51907;SDS011;39320;53.214;6.556;2023-03-01T12:50:11;8.18;;;7.47;;
51907;SDS011;39320;53.214;6.556;2023-03-01T12:52:54;8.40;;;7.70;;
51907;SDS011;39320;53.214;6.556;2023-03-01T12:55:33;7.45;;;6.82;;
51907;SDS011;39320;53.214;6.556;2023-03-01T12:58:07;7.25;;;6.65;;
51907;SDS011;39320;53.214;6.556;2023-03-01T13:10:03;6.35;;;5.75;;
51907;SDS011;39320;53.214;6.556;2023-03-01T13:18:00;5.82;;;5.43;;
51907;SDS011;39320;53.214;6.556;2023-03-01T13:20:30;6.15;;;5.65;;
51907;SDS011;39320;53.214;6.556;2023-03-01T13:23:02;5.80;;;5.25;;
51907;SDS011;39320;53.214;6.556;2023-03-01T13:25:33;5.95;;;5.45;;
51907;SDS011;39320;53.214;6.556;2023-03-01T13:33:48;5.85;;;5.35;;
51907;SDS011;39320;53.214;6.556;2023-03-01T13:36:51;6.53;;;6.03;;
51907;SDS011;39320;53.214;6.556;2023-03-01T13:39:38;6.57;;;6.07;;
51907;SDS011;39320;53.214;6.556;2023-03-01T13:45:03;6.53;;;6.00;;
51907;SDS011;39320;53.214;6.556;2023-03-01T13:47:44;6.32;;;5.72;;
51907;SDS011;39320;53.214;6.556;2023-03-01T13:50:18;6.75;;;6.15;;
51907;SDS011;39320;53.214;6.556;2023-03-01T13:53:00;6.10;;;5.50;;
51907;SDS011;39320;53.214;6.556;2023-03-01T13:55:43;5.60;;;5.13;;
51907;SDS011;39320;53.214;6.556;2023-03-01T13:58:30;5.95;;;5.55;;
51907;SDS011;39320;53.214;6.556;2023-03-01T14:00:58;5.30;;;4.90;;
51907;SDS011;39320;53.214;6.556;2023-03-01T14:03:29;5.72;;;5.28;;
51907;SDS011;39320;53.214;6.556;2023-03-01T14:06:12;5.93;;;5.47;;
51907;SDS011;39320;53.214;6.556;2023-03-01T14:08:43;5.68;;;5.18;;
51907;SDS011;39320;53.214;6.556;2023-03-01T14:16:37;5.38;;;4.88;;
51907;SDS011;39320;53.214;6.556;2023-03-01T14:19:26;6.13;;;5.60;;
51907;SDS011;39320;53.214;6.556;2023-03-01T14:22:15;5.72;;;5.22;;
51907;SDS011;39320;53.214;6.556;2023-03-01T14:27:38;6.65;;;6.10;;
51907;SDS011;39320;53.214;6.556;2023-03-01T14:30:11;6.38;;;5.88;;
51907;SDS011;39320;53.214;6.556;2023-03-01T14:32:42;6.15;;;5.65;;
51907;SDS011;39320;53.214;6.556;2023-03-01T14:35:21;6.72;;;5.57;;
51907;SDS011;39320;53.214;6.556;2023-03-01T14:37:48;5.93;;;5.43;;
51907;SDS011;39320;53.214;6.556;2023-03-01T14:40:24;6.20;;;5.60;;
51907;SDS011;39320;53.214;6.556;2023-03-01T14:42:55;7.15;;;6.55;;
51907;SDS011;39320;53.214;6.556;2023-03-01T14:45:24;6.40;;;5.90;;
51907;SDS011;39320;53.214;6.556;2023-03-01T14:47:52;7.05;;;6.40;;
51907;SDS011;39320;53.214;6.556;2023-03-01T14:50:25;6.93;;;6.23;;
51907;SDS011;39320;53.214;6.556;2023-03-01T14:52:54;6.38;;;5.88;;
51907;SDS011;39320;53.214;6.556;2023-03-01T14:55:33;6.82;;;6.13;;
51907;SDS011;39320;53.214;6.556;2023-03-01T14:58:03;7.85;;;7.07;;
51907;SDS011;39320;53.214;6.556;2023-03-01T15:00:31;6.57;;;5.97;;
51907;SDS011;39320;53.214;6.556;2023-03-01T15:03:20;6.30;;;5.63;;
51907;SDS011;39320;53.214;6.556;2023-03-01T15:06:06;5.65;;;5.15;;
51907;SDS011;39320;53.214;6.556;2023-03-01T15:08:40;6.47;;;5.88;;
51907;SDS011;39320;53.214;6.556;2023-03-01T15:13:48;6.07;;;5.50;;
51907;SDS011;39320;53.214;6.556;2023-03-01T15:16:22;6.50;;;5.93;;
51907;SDS011;39320;53.214;6.556;2023-03-01T15:18:55;7.28;;;6.57;;
51907;SDS011;39320;53.214;6.556;2023-03-01T15:21:33;6.10;;;5.60;;
51907;SDS011;39320;53.214;6.556;2023-03-01T15:24:05;5.55;;;5.05;;
51907;SDS011;39320;53.214;6.556;2023-03-01T15:27:12;5.60;;;5.10;;
51907;SDS011;39320;53.214;6.556;2023-03-01T15:29:41;6.38;;;5.78;;
51907;SDS011;39320;53.214;6.556;2023-03-01T15:32:25;6.80;;;6.15;;
51907;SDS011;39320;53.214;6.556;2023-03-01T15:34:57;7.55;;;6.80;;
51907;SDS011;39320;53.214;6.556;2023-03-01T15:37:47;6.30;;;5.70;;
51907;SDS011;39320;53.214;6.556;2023-03-01T15:40:21;6.43;;;5.93;;
51907;SDS011;39320;53.214;6.556;2023-03-01T15:43:00;6.80;;;6.20;;
51907;SDS011;39320;53.214;6.556;2023-03-01T15:45:29;6.70;;;6.10;;
51907;SDS011;39320;53.214;6.556;2023-03-01T15:48:02;6.88;;;6.18;;
51907;SDS011;39320;53.214;6.556;2023-03-01T15:50:43;8.67;;;7.87;;
51907;SDS011;39320;53.214;6.556;2023-03-01T15:53:19;6.63;;;6.03;;
51907;SDS011;39320;53.214;6.556;2023-03-01T15:55:45;6.53;;;6.03;;
51907;SDS011;39320;53.214;6.556;2023-03-01T16:00:46;7.07;;;6.15;;
51907;SDS011;39320;53.214;6.556;2023-03-01T16:03:14;6.82;;;6.22;;
51907;SDS011;39320;53.214;6.556;2023-03-01T16:05:46;7.25;;;6.53;;
51907;SDS011;39320;53.214;6.556;2023-03-01T16:08:12;7.38;;;6.60;;
51907;SDS011;39320;53.214;6.556;2023-03-01T16:10:38;6.07;;;5.57;;
51907;SDS011;39320;53.214;6.556;2023-03-01T16:13:06;6.60;;;6.00;;
51907;SDS011;39320;53.214;6.556;2023-03-01T16:15:33;5.85;;;5.35;;
51907;SDS011;39320;53.214;6.556;2023-03-01T16:18:00;6.70;;;6.20;;
51907;SDS011;39320;53.214;6.556;2023-03-01T16:20:27;7.22;;;6.63;;
51907;SDS011;39320;53.214;6.556;2023-03-01T16:23:00;6.28;;;5.78;;
51907;SDS011;39320;53.214;6.556;2023-03-01T16:25:28;7.15;;;6.45;;
51907;SDS011;39320;53.214;6.556;2023-03-01T16:27:55;6.07;;;5.57;;
51907;SDS011;39320;53.214;6.556;2023-03-01T16:30:27;6.57;;;6.03;;
51907;SDS011;39320;53.214;6.556;2023-03-01T16:32:53;6.50;;;5.90;;
51907;SDS011;39320;53.214;6.556;2023-03-01T16:35:20;6.78;;;6.28;;
51907;SDS011;39320;53.214;6.556;2023-03-01T16:37:49;6.78;;;6.10;;
51907;SDS011;39320;53.214;6.556;2023-03-01T16:40:26;6.75;;;6.05;;
51907;SDS011;39320;53.214;6.556;2023-03-01T16:42:54;7.47;;;6.77;;
51907;SDS011;39320;53.214;6.556;2023-03-01T16:45:25;6.35;;;5.75;;
51907;SDS011;39320;53.214;6.556;2023-03-01T16:47:52;6.75;;;6.15;;
51907;SDS011;39320;53.214;6.556;2023-03-01T16:50:19;6.70;;;6.07;;
51907;SDS011;39320;53.214;6.556;2023-03-01T16:52:45;6.82;;;6.28;;
51907;SDS011;39320;53.214;6.556;2023-03-01T16:55:11;6.57;;;6.07;;
51907;SDS011;39320;53.214;6.556;2023-03-01T16:57:37;7.88;;;7.03;;
51907;SDS011;39320;53.214;6.556;2023-03-01T17:00:04;7.05;;;6.35;;
51907;SDS011;39320;53.214;6.556;2023-03-01T17:02:33;5.57;;;5.07;;
51907;SDS011;39320;53.214;6.556;2023-03-01T17:04:59;5.95;;;5.53;;
51907;SDS011;39320;53.214;6.556;2023-03-01T17:07:27;5.55;;;5.05;;
51907;SDS011;39320;53.214;6.556;2023-03-01T17:09:58;5.03;;;4.50;;
51907;SDS011;39320;53.214;6.556;2023-03-01T17:12:25;8.82;;;6.22;;
51907;SDS011;39320;53.214;6.556;2023-03-01T17:14:55;6.68;;;5.93;;
51907;SDS011;39320;53.214;6.556;2023-03-01T17:17:21;6.75;;;6.15;;